Time;durP1;ratioP1;P1;durP2;ratioP2;P2;SDS_P1;SDS_P2;PMS_P1;PMS_P2;Temp;Humidity;BMP_temperature;BMP_pressure;BME280_temperature;BME280_humidity;BME280_pressure;Samples;Min_cycle;Max_cycle;Signal;HPM_P1;HPM_P2
2022/10/21 00:01:25;;;;;;;14.38;8.32;;;8.70;1.00;;;;;;6179113;23;20270;-78
2022/10/21 00:03:56;;;;;;;12.50;8.05;;;8.70;1.00;;;;;;6184995;23;20206;-78
2022/10/21 00:06:28;;;;;;;14.13;8.10;;;8.70;1.00;;;;;;6210482;23;20221;-79
2022/10/21 00:08:56;;;;;;;13.98;8.80;;;8.60;1.00;;;;;;6225876;22;20217;-78
2022/10/21 00:11:26;;;;;;;14.70;8.27;;;8.60;1.00;;;;;;6225688;23;20197;-78
2022/10/21 00:13:53;;;;;;;13.75;7.93;;;8.60;1.00;;;;;;6226066;23;20205;-80
2022/10/21 00:16:20;;;;;;;13.38;8.48;;;8.60;1.00;;;;;;6225736;23;20469;-80
2022/10/21 00:18:48;;;;;;;14.35;8.77;;;8.70;1.00;;;;;;6224667;23;20213;-79
2022/10/21 00:21:19;;;;;;;14.32;8.60;;;8.70;1.00;;;;;;6226537;22;20257;-79
2022/10/21 00:23:47;;;;;;;14.55;9.02;;;8.60;1.00;;;;;;6227204;23;20693;-80
2022/10/21 00:26:14;;;;;;;12.68;8.40;;;8.60;1.00;;;;;;6224360;23;20217;-80
2022/10/21 00:28:43;;;;;;;15.60;9.02;;;8.60;1.00;;;;;;6211852;23;20273;-79
2022/10/21 00:31:16;;;;;;;16.23;8.73;;;8.60;1.00;;;;;;6171755;23;20290;-80
2022/10/21 00:33:44;;;;;;;15.32;8.57;;;8.60;1.00;;;;;;6213671;23;20209;-79
2022/10/21 00:36:13;;;;;;;17.15;9.35;;;8.70;1.00;;;;;;6226025;23;20193;-80
2022/10/21 00:38:43;;;;;;;13.13;8.07;;;8.70;1.00;;;;;;6212847;23;20297;-80
2022/10/21 00:41:14;;;;;;;13.88;8.68;;;8.60;1.00;;;;;;6214247;23;20262;-79
2022/10/21 00:43:58;;;;;;;14.38;9.40;;;8.50;1.00;;;;;;6223223;23;20264;-81
2022/10/21 00:46:37;;;;;;;16.50;9.32;;;8.60;1.00;;;;;;6223482;23;20293;-80
2022/10/21 00:49:08;;;;;;;15.23;8.55;;;8.60;1.00;;;;;;6226823;23;20252;-79
2022/10/21 00:51:37;;;;;;;14.52;9.07;;;8.70;1.00;;;;;;6225889;23;20622;-79
2022/10/21 00:54:06;;;;;;;14.38;8.80;;;8.70;1.00;;;;;;6200010;23;20214;-80
2022/10/21 00:56:35;;;;;;;13.10;8.35;;;8.70;1.00;;;;;;6210581;23;20217;-80
2022/10/21 00:59:04;;;;;;;14.00;9.13;;;8.70;1.00;;;;;;6224984;23;20220;-79
2022/10/21 01:01:32;;;;;;;13.85;8.95;;;8.80;1.00;;;;;;6224877;23;20218;-79
2022/10/21 01:04:00;;;;;;;15.73;9.60;;;8.90;1.00;;;;;;6225085;23;20209;-78
2022/10/21 01:06:28;;;;;;;14.35;9.00;;;8.90;1.00;;;;;;6224637;22;20217;-79
2022/10/21 01:08:56;;;;;;;14.02;8.65;;;8.90;1.00;;;;;;6225736;22;20193;-78
2022/10/21 01:11:25;;;;;;;15.10;9.38;;;9.00;1.00;;;;;;6225132;22;20213;-80
2022/10/21 01:14:14;;;;;;;14.60;8.35;;;9.00;1.00;;;;;;6225116;22;20224;-79
2022/10/21 01:16:47;;;;;;;13.67;8.57;;;9.00;1.00;;;;;;6219034;22;20196;-80
2022/10/21 01:19:34;;;;;;;15.30;9.40;;;9.00;1.00;;;;;;6223971;22;20456;-79
2022/10/21 01:22:14;;;;;;;17.50;9.43;;;9.00;1.00;;;;;;6221779;22;20281;-80
2022/10/21 01:24:52;;;;;;;14.85;8.35;;;9.00;1.00;;;;;;6223470;22;21005;-79
2022/10/21 01:27:32;;;;;;;16.05;9.15;;;8.90;1.00;;;;;;6223642;22;20220;-79
2022/10/21 01:30:23;;;;;;;15.35;9.13;;;8.90;1.00;;;;;;6224734;22;20217;-79
2022/10/21 01:33:21;;;;;;;15.07;9.05;;;8.90;1.00;;;;;;6223729;22;20209;-78
2022/10/21 01:35:53;;;;;;;15.48;9.50;;;8.80;1.00;;;;;;6224270;22;20209;-79
2022/10/21 01:38:24;;;;;;;16.30;8.55;;;8.80;1.00;;;;;;6222404;22;20243;-80
2022/10/21 01:40:57;;;;;;;16.00;9.35;;;8.80;1.00;;;;;;6222527;22;20213;-79
2022/10/21 01:43:32;;;;;;;14.57;9.30;;;8.80;1.00;;;;;;6224591;22;20245;-80
2022/10/21 01:46:03;;;;;;;14.73;9.43;;;8.80;1.00;;;;;;6224973;22;20209;-79
2022/10/21 01:48:37;;;;;;;16.15;10.02;;;8.70;1.00;;;;;;6224140;22;20217;-80
2022/10/21 01:51:07;;;;;;;15.93;9.90;;;8.70;1.00;;;;;;6226547;22;20284;-80
2022/10/21 01:53:43;;;;;;;15.35;8.93;;;8.70;1.00;;;;;;6222176;22;20243;-79
2022/10/21 01:56:13;;;;;;;17.63;9.70;;;8.80;1.00;;;;;;6223487;22;20639;-80
2022/10/21 01:58:42;;;;;;;16.65;9.45;;;8.80;1.00;;;;;;6223382;22;20217;-79
2022/10/21 02:01:11;;;;;;;15.55;9.90;;;8.80;1.00;;;;;;6225217;22;20231;-79
2022/10/21 02:03:43;;;;;;;16.85;9.60;;;8.90;1.00;;;;;;6206364;22;20928;-79
2022/10/21 02:06:12;;;;;;;15.00;9.60;;;8.90;1.00;;;;;;6196773;23;20224;-80
2022/10/21 02:08:40;;;;;;;16.33;10.15;;;8.90;1.00;;;;;;6205695;23;20293;-79
2022/10/21 02:11:10;;;;;;;15.80;9.25;;;8.90;1.00;;;;;;6206235;23;20217;-79
2022/10/21 02:13:45;;;;;;;15.30;10.40;;;8.90;1.00;;;;;;6180605;23;20920;-79
2022/10/21 02:16:18;;;;;;;14.73;9.60;;;8.90;1.00;;;;;;6217644;23;20216;-79
2022/10/21 02:18:46;;;;;;;14.65;9.45;;;8.90;1.00;;;;;;6199823;23;20917;-79
2022/10/21 02:21:20;;;;;;;15.77;9.18;;;8.90;1.00;;;;;;6203420;23;20210;-78
2022/10/21 02:23:53;;;;;;;14.45;9.90;;;8.90;1.00;;;;;;6206937;23;20985;-80
2022/10/21 02:26:24;;;;;;;16.13;9.15;;;9.00;1.00;;;;;;6193380;23;20209;-79
2022/10/21 02:29:05;;;;;;;16.95;9.65;;;9.10;1.00;;;;;;6162472;23;21042;-79
2022/10/21 02:32:11;;;;;;;16.00;10.25;;;9.10;1.00;;;;;;6148145;23;20219;-79
2022/10/21 02:35:03;;;;;;;17.08;10.35;;;9.00;1.00;;;;;;6178183;23;20292;-79
2022/10/21 02:37:45;;;;;;;16.42;10.52;;;9.00;1.00;;;;;;6102720;23;20370;-80
2022/10/21 02:40:18;;;;;;;14.95;9.57;;;9.00;1.00;;;;;;6119772;23;20964;-79
2022/10/21 02:42:53;;;;;;;14.30;10.18;;;9.00;1.00;;;;;;6161384;23;20221;-79
2022/10/21 02:45:25;;;;;;;17.35;11.23;;;9.00;1.00;;;;;;6209715;23;20292;-79
2022/10/21 02:47:57;;;;;;;14.93;9.98;;;9.10;1.00;;;;;;6226475;23;20285;-79
2022/10/21 02:50:25;;;;;;;14.25;9.85;;;9.30;1.00;;;;;;6227167;22;20189;-79
2022/10/21 02:52:56;;;;;;;13.80;9.93;;;9.30;1.00;;;;;;6227001;22;20213;-79
2022/10/21 02:55:26;;;;;;;14.13;10.65;;;9.40;1.00;;;;;;6213702;23;20220;-78
2022/10/21 02:58:07;;;;;;;15.55;9.48;;;9.30;1.00;;;;;;6214676;23;20213;-79
2022/10/21 03:00:37;;;;;;;14.75;10.52;;;9.40;1.00;;;;;;6201964;23;20259;-78
2022/10/21 03:03:04;;;;;;;15.70;10.60;;;9.30;1.00;;;;;;6207014;23;20228;-79
2022/10/21 03:05:36;;;;;;;13.77;10.35;;;9.30;1.00;;;;;;6212270;22;20222;-79
2022/10/21 03:08:05;;;;;;;14.35;10.82;;;9.30;1.00;;;;;;6259650;22;20267;-80
2022/10/21 03:10:32;;;;;;;14.77;11.10;;;9.20;1.00;;;;;;6256391;22;20887;-79
2022/10/21 03:12:59;;;;;;;16.17;11.30;;;9.20;1.00;;;;;;6255309;22;20217;-79
2022/10/21 03:15:30;;;;;;;15.70;10.75;;;9.20;1.00;;;;;;6252244;22;20735;-78
2022/10/21 03:17:57;;;;;;;19.27;11.47;;;9.10;1.00;;;;;;6255236;22;20219;-78
2022/10/21 03:20:26;;;;;;;13.70;10.13;;;9.20;1.00;;;;;;6253253;22;20447;-79
2022/10/21 03:22:54;;;;;;;14.97;10.70;;;9.30;1.00;;;;;;6256546;22;20208;-79
2022/10/21 03:25:21;;;;;;;15.80;10.82;;;9.30;1.00;;;;;;6255689;22;20412;-79
2022/10/21 03:27:58;;;;;;;15.87;11.60;;;9.30;1.00;;;;;;6255662;22;20213;-79
2022/10/21 03:30:25;;;;;;;16.50;11.48;;;9.30;1.00;;;;;;6254603;22;20419;-81
2022/10/21 03:32:52;;;;;;;17.80;12.82;;;9.30;1.00;;;;;;6254635;22;21031;-79
2022/10/21 03:35:18;;;;;;;16.70;10.63;;;9.30;1.00;;;;;;6252456;22;20215;-79
2022/10/21 03:37:45;;;;;;;15.82;10.98;;;9.30;1.00;;;;;;6253745;22;20494;-79
2022/10/21 03:40:14;;;;;;;17.60;12.48;;;9.30;1.00;;;;;;6251136;22;20238;-77
2022/10/21 03:42:42;;;;;;;15.55;12.43;;;9.30;1.00;;;;;;6252934;22;20212;-78
2022/10/21 03:45:11;;;;;;;14.38;10.93;;;9.20;1.00;;;;;;6253742;22;20640;-80
2022/10/21 03:47:37;;;;;;;17.38;11.77;;;9.20;1.00;;;;;;6252442;22;20200;-79
2022/10/21 03:50:06;;;;;;;19.00;12.20;;;9.20;1.00;;;;;;6255972;22;20220;-78
2022/10/21 03:52:32;;;;;;;15.55;11.40;;;9.30;1.00;;;;;;6252891;22;20613;-77
2022/10/21 03:54:59;;;;;;;17.13;11.18;;;9.30;1.00;;;;;;6254275;22;20219;-79
2022/10/21 03:57:29;;;;;;;17.08;12.30;;;9.30;1.00;;;;;;6256501;22;20640;-79
2022/10/21 03:59:55;;;;;;;16.90;12.97;;;9.30;1.00;;;;;;6256278;22;20201;-79
2022/10/21 04:02:23;;;;;;;17.10;12.40;;;9.30;1.00;;;;;;6252922;22;20450;-78
2022/10/21 04:04:50;;;;;;;16.33;12.32;;;9.30;1.00;;;;;;6251697;22;20807;-78
2022/10/21 04:07:17;;;;;;;16.70;14.00;;;9.20;1.00;;;;;;6239330;22;20232;-80
2022/10/21 04:09:44;;;;;;;16.13;11.93;;;9.20;1.00;;;;;;6251339;22;20291;-81
2022/10/21 04:12:10;;;;;;;16.15;12.95;;;9.10;1.00;;;;;;6253041;22;20283;-80
2022/10/21 04:14:39;;;;;;;25.75;23.08;;;9.20;1.00;;;;;;6255532;22;20217;-79
2022/10/21 04:17:05;;;;;;;18.30;16.08;;;9.20;1.00;;;;;;6253438;22;20212;-79
2022/10/21 04:19:32;;;;;;;17.63;13.70;;;9.20;1.00;;;;;;6252276;22;20221;-80
2022/10/21 04:21:59;;;;;;;29.88;26.70;;;9.20;1.00;;;;;;6255353;22;20220;-78
2022/10/21 04:24:26;;;;;;;19.50;14.65;;;9.10;1.00;;;;;;6241588;22;20219;-78
2022/10/21 04:26:54;;;;;;;20.00;14.25;;;9.20;1.00;;;;;;6254440;22;20956;-81
2022/10/21 04:29:22;;;;;;;22.08;13.70;;;9.20;1.00;;;;;;6253028;22;20220;-79
2022/10/21 04:31:50;;;;;;;17.52;12.52;;;9.30;1.00;;;;;;6253679;22;20924;-78
2022/10/21 04:34:17;;;;;;;17.42;11.60;;;9.30;1.00;;;;;;6250191;22;20310;-78
2022/10/21 04:36:44;;;;;;;15.85;12.93;;;9.40;1.00;;;;;;6255685;22;20303;-81
2022/10/21 04:39:11;;;;;;;16.75;12.52;;;9.30;1.00;;;;;;6255153;22;20213;-80
2022/10/21 04:41:38;;;;;;;16.80;12.50;;;9.30;1.00;;;;;;6254218;22;20212;-79
2022/10/21 04:44:06;;;;;;;16.30;11.93;;;9.30;1.00;;;;;;6254479;22;20212;-79
2022/10/21 04:46:34;;;;;;;20.20;12.68;;;9.40;1.00;;;;;;6255001;22;20216;-81
2022/10/21 04:49:06;;;;;;;17.70;12.38;;;9.40;1.00;;;;;;6255921;22;20236;-79
2022/10/21 04:51:33;;;;;;;17.58;12.10;;;9.50;1.00;;;;;;6256892;22;20216;-79
2022/10/21 04:54:00;;;;;;;16.40;12.43;;;9.50;1.00;;;;;;6255690;22;20248;-79
2022/10/21 04:56:27;;;;;;;16.98;13.13;;;9.50;1.00;;;;;;6255355;22;20841;-78
2022/10/21 04:58:54;;;;;;;16.23;12.48;;;9.50;1.00;;;;;;6256398;22;20299;-78
2022/10/21 05:01:22;;;;;;;17.10;11.57;;;9.50;1.00;;;;;;6252846;22;20204;-77
2022/10/21 05:03:49;;;;;;;17.43;12.90;;;9.50;1.00;;;;;;6256046;22;20236;-78
2022/10/21 05:06:17;;;;;;;18.93;13.80;;;9.60;1.00;;;;;;6254879;22;20420;-78
2022/10/21 05:08:46;;;;;;;18.00;13.00;;;9.50;1.00;;;;;;6256441;22;20523;-77
2022/10/21 05:11:13;;;;;;;16.00;12.77;;;9.50;1.00;;;;;;6253992;22;21216;-77
2022/10/21 05:13:40;;;;;;;16.48;12.50;;;9.50;1.00;;;;;;6254070;22;20213;-76
2022/10/21 05:16:08;;;;;;;18.80;13.25;;;9.50;1.00;;;;;;6255979;22;20211;-78
2022/10/21 05:18:36;;;;;;;18.67;13.40;;;9.50;1.00;;;;;;6255416;22;20597;-79
2022/10/21 05:21:08;;;;;;;16.70;12.40;;;9.50;1.00;;;;;;6252396;22;20435;-77
2022/10/21 05:23:36;;;;;;;18.50;13.68;;;9.50;1.00;;;;;;6254454;22;20412;-79
2022/10/21 05:26:04;;;;;;;15.37;13.00;;;9.50;1.00;;;;;;6255062;22;20855;-79
2022/10/21 05:28:31;;;;;;;18.03;11.70;;;9.60;1.00;;;;;;6254164;22;20412;-81
2022/10/21 05:31:00;;;;;;;14.80;12.13;;;9.70;1.00;;;;;;6237978;22;20436;-78
2022/10/21 05:33:29;;;;;;;18.50;12.53;;;9.70;1.00;;;;;;6254885;22;20443;-81
2022/10/21 05:36:01;;;;;;;17.20;12.47;;;9.80;1.00;;;;;;6256287;22;20452;-81
2022/10/21 05:38:28;;;;;;;16.87;12.33;;;9.80;1.00;;;;;;6255395;22;20435;-79
2022/10/21 05:40:58;;;;;;;15.33;11.70;;;9.80;1.00;;;;;;6255513;22;20440;-79
2022/10/21 05:43:27;;;;;;;17.87;13.37;;;9.80;1.00;;;;;;6256012;22;20404;-78
2022/10/21 05:45:56;;;;;;;16.40;12.00;;;9.80;1.00;;;;;;6254871;22;20492;-78
2022/10/21 05:48:26;;;;;;;21.33;14.30;;;9.80;1.00;;;;;;6240673;22;20502;-79
2022/10/21 05:50:57;;;;;;;14.47;11.57;;;9.90;1.00;;;;;;6254171;22;20450;-80
2022/10/21 05:53:26;;;;;;;14.77;11.07;;;10.00;1.00;;;;;;6251091;22;20412;-78
2022/10/21 05:55:58;;;;;;;16.70;12.50;;;9.90;1.00;;;;;;6256089;22;20399;-79
2022/10/21 05:58:26;;;;;;;15.80;12.67;;;9.90;1.00;;;;;;6252904;22;20427;-79
2022/10/21 06:00:55;;;;;;;15.07;11.20;;;9.90;1.00;;;;;;6253308;22;20424;-80
2022/10/21 06:03:23;;;;;;;17.23;12.00;;;9.90;1.00;;;;;;6250990;22;20423;-79
2022/10/21 06:05:49;;;;;;;18.83;13.00;;;10.00;1.00;;;;;;6254643;22;20441;-81
2022/10/21 06:08:16;;;;;;;27.93;20.90;;;10.10;1.00;;;;;;6227228;22;20424;-79
2022/10/21 06:10:43;;;;;;;18.53;13.60;;;10.10;1.00;;;;;;6253205;22;20443;-83
2022/10/21 06:13:11;;;;;;;21.13;13.00;;;10.10;1.00;;;;;;6253751;22;20411;-80
2022/10/21 06:15:38;;;;;;;17.70;11.87;;;10.10;1.00;;;;;;6212394;22;20500;-80
2022/10/21 06:18:06;;;;;;;17.27;12.50;;;10.20;1.00;;;;;;6236104;22;20428;-75
2022/10/21 06:20:33;;;;;;;19.53;13.13;;;10.20;1.00;;;;;;6251528;22;20763;-75
2022/10/21 06:23:02;;;;;;;15.67;12.37;;;10.20;1.00;;;;;;6251221;22;20408;-77
2022/10/21 06:25:29;;;;;;;18.50;11.80;;;10.30;1.00;;;;;;6251695;22;21055;-77
2022/10/21 06:27:56;;;;;;;14.27;11.80;;;10.20;1.00;;;;;;6252182;22;20510;-77
2022/10/21 06:30:24;;;;;;;15.50;11.60;;;10.20;1.00;;;;;;6249909;22;20273;-76
2022/10/21 06:32:51;;;;;;;16.90;11.43;;;10.20;1.00;;;;;;6251671;22;20818;-77
2022/10/21 06:35:20;;;;;;;17.80;12.37;;;10.20;1.00;;;;;;6251442;22;20422;-78
2022/10/21 06:37:49;;;;;;;19.70;13.50;;;10.20;1.00;;;;;;6253529;22;20854;-76
2022/10/21 06:40:16;;;;;;;19.80;12.43;;;10.20;1.00;;;;;;6254635;22;20817;-77
2022/10/21 06:42:45;;;;;;;16.53;11.87;;;10.20;1.00;;;;;;6254295;22;20419;-77
2022/10/21 06:45:11;;;;;;;18.63;12.43;;;10.10;1.00;;;;;;6255814;22;20416;-77
2022/10/21 06:47:40;;;;;;;20.60;12.90;;;10.10;1.00;;;;;;6254024;22;20426;-77
2022/10/21 06:50:08;;;;;;;22.07;13.73;;;10.10;1.00;;;;;;6256788;22;20452;-79
2022/10/21 06:52:35;;;;;;;19.87;13.70;;;10.10;1.00;;;;;;6252341;22;20457;-78
2022/10/21 06:55:02;;;;;;;20.70;13.97;;;10.20;1.00;;;;;;6255442;22;20467;-78
2022/10/21 06:57:28;;;;;;;18.83;14.13;;;10.20;1.00;;;;;;6251340;22;20427;-77
2022/10/21 06:59:56;;;;;;;20.00;13.67;;;10.20;1.00;;;;;;6253769;22;20209;-79
2022/10/21 07:02:23;;;;;;;19.02;13.80;;;10.20;1.00;;;;;;6252569;22;20419;-79
2022/10/21 07:04:52;;;;;;;19.40;14.63;;;10.20;1.00;;;;;;6255000;22;20212;-78
2022/10/21 07:07:20;;;;;;;18.10;13.37;;;10.20;1.00;;;;;;6255526;22;20436;-77
2022/10/21 07:09:48;;;;;;;18.70;13.50;;;10.30;1.00;;;;;;6257262;22;20428;-76
2022/10/21 07:12:15;;;;;;;18.70;14.57;;;10.30;1.00;;;;;;6254581;22;20396;-79
2022/10/21 07:14:45;;;;;;;17.50;12.90;;;10.30;1.00;;;;;;6204880;22;20486;-77
2022/10/21 07:17:13;;;;;;;16.13;12.70;;;10.40;1.00;;;;;;6254949;22;20424;-78
2022/10/21 07:19:40;;;;;;;28.93;14.00;;;10.40;1.00;;;;;;6255430;22;20404;-77
2022/10/21 07:22:08;;;;;;;20.90;14.03;;;10.40;1.00;;;;;;6255379;22;20434;-78
2022/10/21 07:24:35;;;;;;;20.90;13.77;;;10.40;1.00;;;;;;6252422;22;20413;-79
2022/10/21 07:27:03;;;;;;;22.43;14.47;;;10.40;1.00;;;;;;6256457;22;20830;-77
2022/10/21 07:29:29;;;;;;;21.53;14.00;;;10.50;1.00;;;;;;6237164;22;20504;-79
2022/10/21 07:31:57;;;;;;;20.57;13.77;;;10.50;1.00;;;;;;6258232;22;20412;-77
2022/10/21 07:34:25;;;;;;;21.23;14.03;;;10.60;1.00;;;;;;6257457;22;20400;-77
2022/10/21 07:36:55;;;;;;;18.92;13.70;;;10.70;1.00;;;;;;6252532;22;20380;-78
2022/10/21 07:39:26;;;;;;;17.83;13.00;;;10.70;1.00;;;;;;6254550;22;20212;-79
2022/10/21 07:41:55;;;;;;;18.80;13.00;;;10.80;1.00;;;;;;6256659;22;20384;-78
2022/10/21 07:44:23;;;;;;;17.53;13.73;;;10.80;1.00;;;;;;6256003;22;20434;-79
2022/10/21 07:46:51;;;;;;;18.60;12.03;;;10.80;1.00;;;;;;6256512;22;21092;-77
2022/10/21 07:49:21;;;;;;;19.43;13.90;;;10.80;1.00;;;;;;6254810;22;20476;-79
2022/10/21 07:51:50;;;;;;;16.13;12.50;;;10.80;1.00;;;;;;6257265;22;20419;-79
2022/10/21 07:54:18;;;;;;;17.10;13.40;;;10.90;1.00;;;;;;6258179;22;20408;-78
2022/10/21 07:56:49;;;;;;;18.07;12.10;;;10.90;1.00;;;;;;6255333;22;21104;-78
2022/10/21 07:59:17;;;;;;;19.17;16.87;;;11.10;1.00;;;;;;6253440;22;20439;-79
2022/10/21 08:01:46;;;;;;;17.03;13.43;;;11.10;1.00;;;;;;6256395;22;20491;-77
2022/10/21 08:04:16;;;;;;;19.60;13.13;;;11.10;1.00;;;;;;6254736;22;20422;-78
2022/10/21 08:06:43;;;;;;;17.00;12.97;;;11.20;1.00;;;;;;6256072;22;20520;-78
2022/10/21 08:09:12;;;;;;;17.50;12.30;;;11.30;1.00;;;;;;6255419;22;20427;-78
2022/10/21 08:11:40;;;;;;;16.17;11.57;;;11.40;1.00;;;;;;6255952;22;20749;-79
2022/10/21 08:14:10;;;;;;;18.00;12.67;;;11.50;1.00;;;;;;6256515;22;20423;-78
2022/10/21 08:16:37;;;;;;;17.97;12.20;;;11.70;1.00;;;;;;6254927;22;20416;-79
2022/10/21 08:19:04;;;;;;;22.47;14.50;;;11.70;1.00;;;;;;6254556;22;20562;-78
2022/10/21 08:21:31;;;;;;;18.30;12.70;;;11.70;1.00;;;;;;6254143;22;20416;-79
2022/10/21 08:23:58;;;;;;;25.50;12.03;;;11.80;1.00;;;;;;6259804;22;20427;-78
2022/10/21 08:26:25;;;;;;;21.50;12.27;;;11.90;1.00;;;;;;6255350;22;21115;-80
2022/10/21 08:28:52;;;;;;;20.27;12.77;;;12.00;1.00;;;;;;6256439;22;20519;-78
2022/10/21 08:31:23;;;;;;;20.00;13.10;;;12.10;1.00;;;;;;6254858;22;20419;-80
2022/10/21 08:33:50;;;;;;;21.50;12.83;;;12.20;1.00;;;;;;6237735;22;20503;-79
2022/10/21 08:36:19;;;;;;;18.20;11.60;;;12.50;1.00;;;;;;6252456;22;20415;-80
2022/10/21 08:38:49;;;;;;;23.70;13.80;;;12.80;1.00;;;;;;6252792;22;20436;-81
2022/10/21 08:41:36;;;;;;;16.60;12.83;;;12.90;1.00;;;;;;6252849;22;20466;-79
2022/10/21 08:44:12;;;;;;;17.80;11.60;;;13.10;1.00;;;;;;6255837;22;20416;-79
2022/10/21 08:46:46;;;;;;;16.00;11.60;;;13.30;1.00;;;;;;6252005;22;20420;-82
2022/10/21 08:49:17;;;;;;;17.07;12.20;;;13.40;1.00;;;;;;6257023;22;20508;-79
2022/10/21 08:51:49;;;;;;;14.53;12.20;;;13.60;1.00;;;;;;6254897;22;20420;-84
2022/10/21 08:54:23;;;;;;;14.50;12.13;;;13.50;1.00;;;;;;6252213;22;21190;-79
2022/10/21 08:56:51;;;;;;;17.30;11.77;;;13.60;1.00;;;;;;6253479;22;20424;-81
2022/10/21 08:59:21;;;;;;;16.17;11.90;;;13.90;1.00;;;;;;6253513;22;20895;-78
2022/10/21 09:01:58;;;;;;;18.80;11.50;;;14.00;1.00;;;;;;6252723;22;20404;-80
2022/10/21 09:04:34;;;;;;;15.70;11.10;;;13.90;1.00;;;;;;6251887;22;20456;-82
2022/10/21 09:07:12;;;;;;;14.07;11.20;;;14.00;1.00;;;;;;6253881;22;20417;-80
2022/10/21 09:09:46;;;;;;;20.20;11.87;;;14.20;1.00;;;;;;6253084;22;20551;-80
2022/10/21 09:12:20;;;;;;;13.90;11.00;;;14.10;1.00;;;;;;6252632;22;20416;-79
2022/10/21 09:15:04;;;;;;;17.10;11.20;;;14.10;1.00;;;;;;6254530;22;21005;-83
2022/10/21 09:17:53;;;;;;;19.47;13.80;;;14.10;1.00;;;;;;6252377;22;20432;-82
2022/10/21 09:20:32;;;;;;;15.83;11.93;;;14.20;1.00;;;;;;6250596;22;20475;-82
2022/10/21 09:23:11;;;;;;;15.90;11.27;;;14.40;1.00;;;;;;6254282;22;20475;-82
2022/10/21 09:25:42;;;;;;;15.20;11.33;;;14.60;1.00;;;;;;6255428;22;20393;-80
2022/10/21 09:28:13;;;;;;;16.70;11.77;;;14.70;1.00;;;;;;6255029;22;20499;-83
2022/10/21 09:30:42;;;;;;;14.03;11.00;;;14.90;1.00;;;;;;6256374;22;21119;-81
2022/10/21 09:33:21;;;;;;;15.50;11.80;;;14.90;1.00;;;;;;6255949;22;20436;-81
2022/10/21 09:35:53;;;;;;;13.63;10.97;;;14.80;1.00;;;;;;6251640;22;20459;-81
2022/10/21 09:38:27;;;;;;;15.60;11.20;;;15.00;1.00;;;;;;6253057;22;20434;-81
2022/10/21 09:41:01;;;;;;;15.73;11.10;;;15.20;1.00;;;;;;6255209;22;20930;-80
2022/10/21 09:43:30;;;;;;;17.57;12.37;;;15.50;1.00;;;;;;6252126;22;20934;-82
2022/10/21 09:45:59;;;;;;;15.40;11.80;;;15.70;1.00;;;;;;6253786;22;20427;-82
2022/10/21 09:48:35;;;;;;;15.80;11.37;;;15.90;1.00;;;;;;6253007;22;20715;-81
2022/10/21 09:51:09;;;;;;;16.20;11.83;;;16.10;1.00;;;;;;6254831;22;20508;-79
2022/10/21 09:53:43;;;;;;;14.13;10.93;;;16.10;1.00;;;;;;6253843;22;20452;-80
2022/10/21 09:56:16;;;;;;;15.03;10.77;;;16.10;1.00;;;;;;6254004;22;20418;-83
2022/10/21 09:58:50;;;;;;;14.37;10.83;;;16.00;1.00;;;;;;6253557;22;20455;-80
2022/10/21 10:01:20;;;;;;;18.30;11.80;;;16.00;1.00;;;;;;6251715;22;20423;-81
2022/10/21 10:03:50;;;;;;;18.80;12.83;;;16.10;1.00;;;;;;6252608;22;20402;-80
2022/10/21 10:06:34;;;;;;;14.23;11.40;;;16.00;1.00;;;;;;6252933;22;20454;-81
2022/10/21 10:09:14;;;;;;;20.30;12.37;;;15.80;1.00;;;;;;6255614;22;20506;-80
2022/10/21 10:11:58;;;;;;;21.83;12.30;;;15.70;1.00;;;;;;6254402;22;20415;-81
2022/10/21 10:14:33;;;;;;;18.73;12.50;;;16.00;1.00;;;;;;6250943;22;20443;-79
2022/10/21 10:17:37;;;;;;;15.60;11.73;;;16.00;1.00;;;;;;6252014;22;20413;-80
2022/10/21 10:20:18;;;;;;;16.37;11.97;;;16.30;1.00;;;;;;6255023;22;20428;-81
2022/10/21 10:22:46;;;;;;;16.00;11.70;;;16.20;1.00;;;;;;6255514;22;20463;-81
2022/10/21 10:25:23;;;;;;;24.70;12.93;;;16.00;1.00;;;;;;6255013;22;20404;-82
2022/10/21 10:27:54;;;;;;;17.20;12.37;;;16.30;1.00;;;;;;6254559;22;20424;-82
2022/10/21 10:30:24;;;;;;;15.03;11.40;;;16.30;1.00;;;;;;6236264;22;20502;-82
2022/10/21 10:32:56;;;;;;;15.53;12.43;;;16.40;1.00;;;;;;6258810;22;20503;-79
2022/10/21 10:35:30;;;;;;;16.87;12.27;;;16.40;1.00;;;;;;6238556;22;20443;-80
2022/10/21 10:37:59;;;;;;;15.30;11.87;;;16.60;1.00;;;;;;6256793;22;20400;-81
2022/10/21 10:40:31;;;;;;;14.20;11.40;;;16.90;1.00;;;;;;6251138;22;20420;-83
2022/10/21 10:43:06;;;;;;;19.47;12.10;;;17.20;1.00;;;;;;6254998;22;20439;-82
2022/10/21 10:45:33;;;;;;;20.67;12.47;;;17.50;1.00;;;;;;6251768;22;20418;-82
2022/10/21 10:48:02;;;;;;;19.43;13.63;;;17.60;1.00;;;;;;6251037;22;20432;-80
2022/10/21 10:50:47;;;;;;;14.83;11.10;;;17.60;1.00;;;;;;6251933;22;20428;-80
2022/10/21 10:53:24;;;;;;;17.07;12.87;;;17.80;1.00;;;;;;6252186;22;20439;-81
2022/10/21 10:55:58;;;;;;;15.13;11.00;;;18.20;1.00;;;;;;6254374;22;20881;-81
2022/10/21 10:58:27;;;;;;;16.77;11.37;;;18.50;1.00;;;;;;6252821;22;20412;-82
2022/10/21 11:00:58;;;;;;;14.03;10.90;;;19.10;1.00;;;;;;6258906;22;20848;-80
2022/10/21 11:03:33;;;;;;;15.67;11.60;;;19.10;1.00;;;;;;6254520;22;20890;-82
2022/10/21 11:06:13;;;;;;;14.40;11.50;;;19.20;1.00;;;;;;6255169;22;20440;-81
2022/10/21 11:08:46;;;;;;;15.03;11.13;;;19.50;1.00;;;;;;6229220;22;20382;-82
2022/10/21 11:11:19;;;;;;;14.60;10.80;;;20.00;1.00;;;;;;6255740;22;20485;-80
2022/10/21 11:13:48;;;;;;;15.97;11.83;;;20.10;1.00;;;;;;6253283;22;20495;-82
2022/10/21 11:16:45;;;;;;;14.73;11.73;;;20.30;1.00;;;;;;6256229;22;20446;-81
2022/10/21 11:19:19;;;;;;;13.33;9.40;;;20.50;1.00;;;;;;6254515;22;20430;-81
2022/10/21 11:21:51;;;;;;;16.63;10.87;;;20.30;1.00;;;;;;6256327;22;20501;-80
2022/10/21 11:24:44;;;;;;;14.53;11.43;;;20.30;1.00;;;;;;6241385;22;20412;-80
2022/10/21 11:27:25;;;;;;;15.10;11.63;;;19.80;1.00;;;;;;6231434;22;20411;-80
2022/10/21 11:30:02;;;;;;;16.27;11.10;;;19.40;1.00;;;;;;6259137;22;20477;-79
2022/10/21 11:32:38;;;;;;;15.73;10.93;;;19.30;1.00;;;;;;6253588;22;20439;-79
2022/10/21 11:35:17;;;;;;;13.93;10.83;;;19.50;1.00;;;;;;6257361;22;20481;-81
2022/10/21 11:38:09;;;;;;;14.00;10.30;;;20.10;1.00;;;;;;6255227;22;20402;-79
2022/10/21 11:40:41;;;;;;;15.70;11.47;;;20.90;1.00;;;;;;6250782;22;20415;-80
2022/10/21 11:43:22;;;;;;;16.07;10.53;;;21.30;1.00;;;;;;6255174;22;20769;-81
2022/10/21 11:45:58;;;;;;;14.20;11.00;;;21.50;1.00;;;;;;6253012;22;20463;-80
2022/10/21 11:48:42;;;;;;;13.83;10.60;;;21.40;1.00;;;;;;6254131;22;20392;-78
2022/10/21 11:51:20;;;;;;;14.00;11.10;;;21.80;1.00;;;;;;6254118;22;20524;-80
2022/10/21 11:54:17;;;;;;;13.93;10.63;;;22.00;1.00;;;;;;6252799;22;20458;-79
2022/10/21 11:56:52;;;;;;;12.97;10.43;;;21.60;1.00;;;;;;6252328;22;20494;-80
2022/10/21 11:59:31;;;;;;;14.80;11.63;;;22.10;1.00;;;;;;6253225;22;20495;-80
2022/10/21 12:02:09;;;;;;;13.23;9.53;;;21.60;1.00;;;;;;6256107;22;20385;-80
2022/10/21 12:04:48;;;;;;;14.10;9.40;;;21.20;1.00;;;;;;6253856;22;20408;-81
2022/10/21 12:07:29;;;;;;;15.60;10.10;;;20.90;1.00;;;;;;6248807;22;20458;-80
2022/10/21 12:10:06;;;;;;;18.03;10.10;;;20.40;1.00;;;;;;6255499;22;20399;-81
2022/10/21 12:12:36;;;;;;;17.63;11.40;;;19.80;1.00;;;;;;6255208;22;20424;-81
2022/10/21 12:15:14;;;;;;;13.80;10.60;;;19.60;1.00;;;;;;6253417;22;20470;-81
2022/10/21 12:17:44;;;;;;;13.60;9.90;;;19.50;1.00;;;;;;6250790;22;20396;-82
2022/10/21 12:20:19;;;;;;;12.20;9.53;;;19.20;1.00;;;;;;6253760;22;20500;-81
2022/10/21 12:22:49;;;;;;;15.93;10.23;;;19.20;1.00;;;;;;6252344;22;20471;-81
2022/10/21 12:25:28;;;;;;;15.90;12.10;;;19.30;1.00;;;;;;6252584;22;20429;-81
2022/10/21 12:28:04;;;;;;;15.30;10.47;;;19.10;1.00;;;;;;6253100;22;20446;-80
2022/10/21 12:30:37;;;;;;;13.40;9.43;;;18.80;1.00;;;;;;6250748;22;20494;-80
2022/10/21 12:33:15;;;;;;;13.97;10.50;;;18.50;1.00;;;;;;6252738;22;20420;-83
2022/10/21 12:35:48;;;;;;;14.37;10.73;;;18.20;1.00;;;;;;6254496;22;20434;-82
2022/10/21 12:38:25;;;;;;;12.10;9.70;;;18.00;1.00;;;;;;6251037;22;20438;-79
2022/10/21 12:41:26;;;;;;;13.10;10.60;;;17.90;1.00;;;;;;6252844;22;20451;-81
2022/10/21 12:43:57;;;;;;;14.70;10.27;;;17.80;1.00;;;;;;6253647;22;20447;-81
2022/10/21 12:46:27;;;;;;;17.77;10.43;;;17.80;1.00;;;;;;6250813;22;20442;-80
2022/10/21 12:48:55;;;;;;;14.47;9.90;;;17.90;1.00;;;;;;6252442;22;20432;-84
2022/10/21 12:51:25;;;;;;;14.70;10.93;;;17.90;1.00;;;;;;6253531;22;21186;-83
2022/10/21 12:53:56;;;;;;;15.23;10.70;;;17.80;1.00;;;;;;6256190;22;20516;-80
2022/10/21 12:56:34;;;;;;;13.30;9.47;;;17.70;1.00;;;;;;6253690;22;20426;-81
2022/10/21 12:59:05;;;;;;;16.20;11.13;;;17.70;1.00;;;;;;6253006;22;20399;-81
2022/10/21 13:02:06;;;;;;;17.00;11.50;;;17.60;1.00;;;;;;6254486;22;20513;-80
2022/10/21 13:04:51;;;;;;;14.93;10.43;;;17.50;1.00;;;;;;6255503;22;20557;-79
2022/10/21 13:08:02;;;;;;;13.90;10.70;;;17.40;1.00;;;;;;6227758;22;20415;-78